map of HIR home
HIR - Airport
Location
City:  Honiara, Guadalcanal, Solomon Islands
Name:Honiara International Airport
Old (Alt.):Henderson International Airport
ICAO:AGGH
IATA:HIR

Details
Type:Airport (Aerodrome, Airfield)
Use:Public/Civil, International (customs port of entry)
Latitude:925'41"S (-9.427999)
Longitude:16003'17"E (160.054789)
Datum:WGS 1984
Elevation:28 ft (9 m)
Variation:8.61E (WMM2015v2 magnetic declination)
-0.01 annual change
Runways:1
Longest:7218 × 148 ft (2200 × 45 m), paved

Time
Time Zone:UTC+11
Local Time:

Weather
METAR:AGGH 041400Z 29003KT 9999 -SH SCT015 BKN028 25/24 Q1007
TAF:AGGH 041105Z 0412/0512 27012KT 9999 -SHRA SCT015 BKN100 PROB40 INTER 0412/0418 5000 SHRA SCT014 OVC025 T 26 25 24 26 Q 1008 1006 1005 1007

Related Locations
Nearby:
Farthest:CSK: 12141 mi / 19539 km
Cap Skirring [Cap Skirring Airport], ZG, SN

Find:

   beyond  
but within

Other Information
Maps:
NOTAMs:
Links:
Sources:

  
  • flag of Solomon Islands
  • flag of Guadalcanal
  

Sectional Chart

Flight Planning
at skyvector.com

Satellite Image

Google Maps Satellite view

 

Copyright © 2004-2019 Karl L. Swartz. All rights reserved.
The Great Circle Mapper name and logo are trademarks of the Great Circle Mapper.
All other trademarks mentioned herein belong to their respective owners.
Please see credits for attibutions and further copyright information.

  Follow gcmap on Facebook Follow gcmap on Twitter GCmap on LinkedIn

hCard Microformat

Geo Microformat